Bear Poplar, North Carolina
Current Conditions -  °F | °C
As of 7:15 PM on Sunday 23 Nov 2014 (Local Time) from KRUQ Reporting Station
Moderate Rain Moderate Rain  
Wind Chill: 57°   Ceiling: 700
Heat Index: 57°   Visibility: 5mi
Dew Point: 56°   Wind: 10mph
Humidity: 98%   Direction: 120°ESE
Pressure: 29.82"   Gusts: 16mph
Location:  35.6421°N, 80.719°W
Report Text: KRUQ 240015Z AUTO 12009G14KT 5SM RA BKN007 OVC015 14/14 A2982 RMK AO2 P0007 T01380135
Loading
Personal Weather Stations






























Interactive Weather Map New forecast layout! Learn more

10-Day Weather Forecast

Advertisements
Track Severe Weather on mobile